createdAt,value
2023-03-12T00:01:16.084Z,96605.06
2023-03-12T00:03:44.366Z,96612.25
2023-03-12T00:06:12.444Z,96611.41
2023-03-12T00:08:40.708Z,96624.97
2023-03-12T00:11:11.511Z,96626.78
2023-03-12T00:13:39.698Z,96628.72
2023-03-12T00:16:09.515Z,96625.31
2023-03-12T00:18:37.644Z,96631.53
2023-03-12T00:21:06.371Z,96635.22
2023-03-12T00:23:34.697Z,96639.72
2023-03-12T00:26:03.102Z,96639.72
2023-03-12T00:28:32.612Z,96638.00
2023-03-12T00:31:00.850Z,96643.38
2023-03-12T00:33:34.182Z,96646.94
2023-03-12T00:36:02.459Z,96647.06
2023-03-12T00:38:30.550Z,96654.38
2023-03-12T00:40:58.752Z,96649.97
2023-03-12T00:43:26.858Z,96644.59
2023-03-12T00:45:56.436Z,96656.34
2023-03-12T00:48:25.261Z,96655.47
2023-03-12T00:50:53.385Z,96658.16
2023-03-12T00:53:21.465Z,96661.94
2023-03-12T00:55:49.565Z,96661.09
2023-03-12T00:58:17.664Z,96669.25
2023-03-12T01:00:45.781Z,96669.25
2023-03-12T01:03:15.346Z,96672.78
2023-03-12T01:05:43.423Z,96673.88
2023-03-12T01:08:12.047Z,96675.72
2023-03-12T01:10:43.053Z,96672.19
2023-03-12T01:13:11.186Z,96675.72
2023-03-12T01:15:39.322Z,96679.38
2023-03-12T01:18:07.464Z,96679.38
2023-03-12T01:20:37.203Z,96676.81
2023-03-12T01:23:05.444Z,96683.06
2023-03-12T01:25:34.121Z,96668.75
2023-03-12T01:28:02.233Z,96675.09
2023-03-12T01:30:30.378Z,96685.84
2023-03-12T01:32:58.649Z,96685.09
2023-03-12T01:35:26.900Z,96691.31
2023-03-12T01:37:56.774Z,96692.19
2023-03-12T01:40:27.870Z,96695.75
2023-03-12T01:42:58.703Z,96694.88
2023-03-12T01:46:06.541Z,96693.16
2023-03-12T01:48:38.103Z,96696.81
2023-03-12T01:51:06.536Z,96698.66
2023-03-12T01:53:36.150Z,96698.66
2023-03-12T01:56:04.642Z,96697.03
2023-03-12T01:58:33.432Z,96702.41
2023-03-12T02:01:01.691Z,96691.66
2023-03-12T02:03:30.306Z,96693.63
2023-03-12T02:06:01.306Z,96700.72
2023-03-12T02:08:29.684Z,96697.16
2023-03-12T02:10:59.244Z,96704.34
2023-03-12T02:13:28.090Z,96707.91
2023-03-12T02:15:56.273Z,96708.03
2023-03-12T02:18:24.441Z,96712.53
2023-03-12T02:20:57.228Z,96713.41
2023-03-12T02:23:29.164Z,96717.03
2023-03-12T02:25:59.306Z,96716.22
2023-03-12T02:28:28.743Z,96718.91
2023-03-12T02:30:59.330Z,96710.91
2023-03-12T02:33:27.761Z,96718.97
2023-03-12T02:35:56.037Z,96721.66
2023-03-12T02:38:38.364Z,96723.50
2023-03-12T02:41:14.182Z,96717.25
2023-03-12T02:43:42.684Z,96718.22
2023-03-12T02:46:10.935Z,96721.78
2023-03-12T02:48:39.215Z,96727.13
2023-03-12T02:51:07.343Z,96731.66
2023-03-12T02:53:35.533Z,96728.88
2023-03-12T02:56:03.796Z,96728.97
2023-03-12T02:58:33.454Z,96732.50
2023-03-12T03:01:02.540Z,96732.63
2023-03-12T03:03:30.855Z,96742.38
2023-03-12T03:05:59.039Z,96743.38
2023-03-12T03:08:27.238Z,96743.38
2023-03-12T03:10:55.391Z,96753.25
2023-03-12T03:13:23.892Z,96752.38
2023-03-12T03:15:53.463Z,96752.38
2023-03-12T03:18:21.645Z,96763.13
2023-03-12T03:20:56.560Z,96760.44
2023-03-12T03:23:24.664Z,96764.00
2023-03-12T03:25:53.591Z,96756.06
2023-03-12T03:28:21.732Z,96766.81
2023-03-12T03:30:50.089Z,96774.84
2023-03-12T03:33:19.615Z,96775.81
2023-03-12T03:35:48.806Z,96780.34
2023-03-12T03:38:17.580Z,96786.56
2023-03-12T03:40:48.942Z,96794.59
2023-03-12T03:43:17.176Z,96795.47
2023-03-12T03:45:46.123Z,96787.53
2023-03-12T03:48:14.769Z,96789.38
2023-03-12T03:50:44.516Z,96796.56
2023-03-12T03:53:13.065Z,96803.66
2023-03-12T03:55:41.254Z,96807.28
2023-03-12T03:58:10.587Z,96805.47
2023-03-12T04:00:39.085Z,96809.22
2023-03-12T04:03:07.277Z,96808.28
2023-03-12T04:05:35.579Z,96812.78
2023-03-12T04:08:05.367Z,96815.47
2023-03-12T04:10:34.874Z,96815.47
2023-03-12T04:13:03.193Z,96827.06
2023-03-12T04:15:31.749Z,96820.84
2023-03-12T04:18:00.346Z,96818.16
2023-03-12T04:20:29.324Z,96826.31
2023-03-12T04:22:58.515Z,96813.78
2023-03-12T04:25:28.077Z,96810.22
2023-03-12T04:27:56.266Z,96819.13
2023-03-12T04:30:24.477Z,96822.78
2023-03-12T04:32:52.847Z,96821.81
2023-03-12T04:35:21.337Z,96832.66
2023-03-12T04:37:49.583Z,96829.97
2023-03-12T04:40:19.366Z,96835.34
2023-03-12T04:42:49.068Z,96841.69
2023-03-12T04:45:17.381Z,96847.94
2023-03-12T04:47:47.588Z,96856.81
2023-03-12T04:50:16.714Z,96856.81
2023-03-12T04:52:45.269Z,96847.94
2023-03-12T04:55:13.607Z,96853.31
2023-03-12T04:57:42.014Z,96859.63
2023-03-12T05:00:13.881Z,96860.59
2023-03-12T05:02:43.768Z,96870.38
2023-03-12T05:05:12.347Z,96865.13
2023-03-12T05:07:41.375Z,96859.75
2023-03-12T05:10:10.667Z,96859.75
2023-03-12T05:12:39.229Z,96857.94
2023-03-12T05:15:08.728Z,96857.06
2023-03-12T05:17:38.368Z,96864.25
2023-03-12T05:20:07.545Z,96866.94
2023-03-12T05:22:35.813Z,96873.16
2023-03-12T05:25:04.488Z,96875.84
2023-03-12T05:27:32.801Z,96881.22
2023-03-12T05:30:01.263Z,96884.84
2023-03-12T05:32:29.437Z,96886.59
2023-03-12T05:34:58.895Z,96892.84
2023-03-12T05:37:27.481Z,96894.66
2023-03-12T05:39:55.632Z,96896.47
2023-03-12T05:42:25.084Z,96892.91
2023-03-12T05:44:53.538Z,96911.72
2023-03-12T05:47:23.252Z,96919.75
2023-03-12T05:49:51.885Z,96926.00
2023-03-12T05:52:21.476Z,96929.66
2023-03-12T05:54:49.628Z,96937.72
2023-03-12T05:57:17.806Z,96941.25
2023-03-12T05:59:45.949Z,96938.56
2023-03-12T06:02:14.126Z,96941.25
2023-03-12T06:04:42.229Z,96950.16
2023-03-12T06:07:10.558Z,96953.84
2023-03-12T06:09:40.036Z,96947.59
2023-03-12T06:12:08.347Z,96960.91
2023-03-12T06:14:37.410Z,96956.41
2023-03-12T06:17:05.570Z,96968.09
2023-03-12T06:19:33.729Z,96966.28
2023-03-12T06:22:01.848Z,96966.91
2023-03-12T06:24:29.986Z,96967.78
2023-03-12T06:27:05.593Z,96973.91
2023-03-12T06:29:33.709Z,96979.16
2023-03-12T06:32:01.879Z,96982.59
2023-03-12T06:34:30.034Z,96978.94
2023-03-12T06:36:58.068Z,96984.19
2023-03-12T06:39:26.281Z,96982.38
2023-03-12T06:41:54.325Z,96979.59
2023-03-12T06:44:23.838Z,96983.06
2023-03-12T06:46:52.312Z,96980.44
2023-03-12T06:49:20.532Z,96984.84
2023-03-12T06:51:48.700Z,96990.16
2023-03-12T06:54:16.857Z,96999.91
2023-03-12T06:56:46.036Z,97002.47
2023-03-12T06:59:14.158Z,97003.22
2023-03-12T07:01:43.709Z,97005.09
2023-03-12T07:04:11.791Z,97006.78
2023-03-12T07:06:39.908Z,97014.72
2023-03-12T07:09:07.995Z,97016.47
2023-03-12T07:11:36.276Z,97015.47
2023-03-12T07:14:04.353Z,97028.81
2023-03-12T07:16:32.617Z,97028.81
2023-03-12T07:19:02.104Z,97026.13
2023-03-12T07:21:31.581Z,97037.72
2023-03-12T07:24:01.027Z,97031.50
2023-03-12T07:26:29.292Z,97037.72
2023-03-12T07:28:57.368Z,97040.41
2023-03-12T07:31:25.548Z,97039.66
2023-03-12T07:33:53.796Z,97028.91
2023-03-12T07:36:23.771Z,97038.91
2023-03-12T07:38:52.126Z,97032.78
2023-03-12T07:41:20.213Z,97044.41
2023-03-12T07:43:48.472Z,97049.88
2023-03-12T07:46:16.653Z,97049.00
2023-03-12T07:48:44.854Z,97056.19
2023-03-12T07:51:12.922Z,97048.16
2023-03-12T07:53:42.440Z,97040.09
2023-03-12T07:56:10.656Z,97047.31
2023-03-12T07:58:39.392Z,97052.69
2023-03-12T08:01:08.090Z,97050.84
2023-03-12T08:03:36.438Z,97051.69
2023-03-12T08:06:06.643Z,97061.56
2023-03-12T08:08:36.216Z,97059.88
2023-03-12T08:11:06.731Z,97053.38
2023-03-12T08:13:34.895Z,97061.53
2023-03-12T08:16:03.198Z,97057.25
2023-03-12T08:18:31.358Z,97062.41
2023-03-12T08:20:59.501Z,97059.50
2023-03-12T08:23:27.708Z,97048.56
2023-03-12T08:25:55.776Z,97043.84
2023-03-12T08:28:25.419Z,97045.34
2023-03-12T08:30:54.514Z,97056.84
2023-03-12T08:33:22.812Z,97047.72
2023-03-12T08:35:51.097Z,97047.59
2023-03-12T08:38:19.279Z,97043.91
2023-03-12T08:40:47.353Z,97048.38
2023-03-12T08:43:15.548Z,97046.44
2023-03-12T08:45:45.062Z,97052.69
2023-03-12T08:48:13.227Z,97058.81
2023-03-12T08:50:41.316Z,97056.97
2023-03-12T08:53:09.464Z,97050.63
2023-03-12T08:55:37.590Z,97054.06
2023-03-12T08:58:05.709Z,97053.94
2023-03-12T09:00:33.816Z,97053.94
2023-03-12T09:03:03.412Z,97052.88
2023-03-12T09:05:31.558Z,97043.84
2023-03-12T09:07:59.653Z,97045.56
2023-03-12T09:10:30.782Z,97042.78
2023-03-12T09:12:59.274Z,97037.41
2023-03-12T09:15:27.324Z,97044.59
2023-03-12T09:17:55.867Z,97048.03
2023-03-12T09:20:25.442Z,97049.75
2023-03-12T09:22:53.548Z,97041.69
2023-03-12T09:25:23.364Z,97040.72
2023-03-12T09:27:51.624Z,97044.16
2023-03-12T09:30:20.938Z,97042.47
2023-03-12T09:32:49.205Z,97042.34
2023-03-12T09:35:17.321Z,97042.34
2023-03-12T09:37:49.498Z,97040.53
2023-03-12T09:40:18.352Z,97037.84
2023-03-12T09:42:48.280Z,97051.16
2023-03-12T09:45:18.459Z,97037.84
2023-03-12T09:47:48.840Z,97056.53
2023-03-12T09:50:21.353Z,97047.59
2023-03-12T09:52:53.006Z,97051.03
2023-03-12T09:55:21.970Z,97048.34
2023-03-12T09:57:50.741Z,97050.19
2023-03-12T10:00:21.058Z,97052.00
2023-03-12T10:03:09.973Z,97058.34
2023-03-12T10:05:39.303Z,97057.38
2023-03-12T10:08:24.215Z,97050.28
2023-03-12T10:10:56.100Z,97036.00
2023-03-12T10:13:35.620Z,97036.75
2023-03-12T10:16:09.847Z,97039.53
2023-03-12T10:18:48.077Z,97036.84
2023-03-12T10:21:21.185Z,97035.91
2023-03-12T10:23:57.293Z,97039.53
2023-03-12T10:26:26.609Z,97036.00
2023-03-12T10:28:57.184Z,97032.34
2023-03-12T10:31:27.248Z,97035.03
2023-03-12T10:33:57.462Z,97042.22
2023-03-12T10:36:26.555Z,97036.84
2023-03-12T10:38:56.003Z,97034.16
2023-03-12T10:41:25.308Z,97035.91
2023-03-12T10:43:53.404Z,97036.00
2023-03-12T10:46:39.641Z,97039.53
2023-03-12T10:49:27.694Z,97035.91
2023-03-12T10:51:56.801Z,97035.16
2023-03-12T10:54:29.692Z,97040.41
2023-03-12T10:56:57.899Z,97043.09
2023-03-12T10:59:28.660Z,97050.28
2023-03-12T11:01:56.952Z,97043.97
2023-03-12T11:04:28.153Z,97052.97
2023-03-12T11:07:14.456Z,97051.16
2023-03-12T11:09:44.038Z,97050.28
2023-03-12T11:12:25.540Z,97044.91
2023-03-12T11:14:53.665Z,97049.31
2023-03-12T11:17:22.905Z,97031.47
2023-03-12T11:19:50.984Z,97035.91
2023-03-12T11:22:29.093Z,97032.34
2023-03-12T11:25:00.129Z,97021.59
2023-03-12T11:27:34.165Z,97019.78
2023-03-12T11:30:02.287Z,97019.66
2023-03-12T11:32:32.992Z,97014.41
2023-03-12T11:35:01.133Z,97009.91
2023-03-12T11:37:33.018Z,97011.72
2023-03-12T11:40:11.977Z,97002.78
2023-03-12T11:42:48.248Z,96993.78
2023-03-12T11:45:20.199Z,96992.78
2023-03-12T11:47:55.315Z,96994.53
2023-03-12T11:50:28.766Z,96987.28
2023-03-12T11:53:10.529Z,96981.09
2023-03-12T11:55:43.809Z,96979.34
2023-03-12T11:58:36.492Z,96969.47
2023-03-12T12:01:07.817Z,96970.34
2023-03-12T12:04:05.638Z,96958.72
2023-03-12T12:06:38.080Z,96959.59
2023-03-12T12:09:11.577Z,96951.53
2023-03-12T12:11:47.004Z,96943.47
2023-03-12T12:14:19.285Z,96942.59
2023-03-12T12:17:03.052Z,96943.56
2023-03-12T12:19:40.548Z,96948.84
2023-03-12T12:22:15.642Z,96941.63
2023-03-12T12:24:54.996Z,96944.31
2023-03-12T12:27:26.160Z,96948.72
2023-03-12T12:30:05.931Z,96958.50
2023-03-12T12:32:40.898Z,96958.50
2023-03-12T12:35:15.508Z,96953.13
2023-03-12T12:37:50.228Z,96953.13
2023-03-12T12:40:22.286Z,96950.34
2023-03-12T12:42:58.196Z,96936.03
2023-03-12T12:45:26.287Z,96951.28
2023-03-12T12:47:56.781Z,96944.09
2023-03-12T12:50:27.284Z,96935.16
2023-03-12T12:52:57.932Z,96935.16
2023-03-12T12:55:27.439Z,96933.22
2023-03-12T12:57:58.584Z,96951.16
2023-03-12T13:00:45.393Z,96942.16
2023-03-12T13:03:18.804Z,96939.47
2023-03-12T13:05:50.403Z,96934.97
2023-03-12T13:08:35.949Z,96931.41
2023-03-12T13:11:18.308Z,96938.47
2023-03-12T13:13:50.274Z,96933.09
2023-03-12T13:16:21.179Z,96941.16
2023-03-12T13:18:58.714Z,96952.78
2023-03-12T13:21:28.202Z,96943.84
2023-03-12T13:23:59.912Z,96949.22
2023-03-12T13:26:30.476Z,96947.53
2023-03-12T13:29:12.179Z,96940.34
2023-03-12T13:31:41.922Z,96950.22
2023-03-12T13:34:42.747Z,96957.28
2023-03-12T13:37:20.693Z,96957.28
2023-03-12T13:39:48.897Z,96959.16
2023-03-12T13:42:28.589Z,96965.34
2023-03-12T13:44:58.105Z,96965.34
2023-03-12T13:47:28.499Z,96968.03
2023-03-12T13:49:57.376Z,96959.97
2023-03-12T13:52:26.285Z,96964.53
2023-03-12T13:55:04.471Z,96959.16
2023-03-12T13:57:38.986Z,96959.03
2023-03-12T14:00:14.193Z,96969.78
2023-03-12T14:02:45.232Z,96965.34
2023-03-12T14:05:13.355Z,96971.84
2023-03-12T14:08:12.398Z,96973.84
2023-03-12T14:10:45.417Z,96970.53
2023-03-12T14:13:20.405Z,96971.41
2023-03-12T14:15:52.260Z,96970.53
2023-03-12T14:18:22.224Z,96972.38
2023-03-12T14:20:54.561Z,96966.16
2023-03-12T14:23:22.743Z,96967.97
2023-03-12T14:25:50.812Z,96969.78
2023-03-12T14:28:20.112Z,96966.25
2023-03-12T14:30:54.359Z,96958.31
2023-03-12T14:33:22.525Z,96954.25
2023-03-12T14:35:52.659Z,96958.88
2023-03-12T14:38:22.934Z,96964.13
2023-03-12T14:40:53.163Z,96958.97
2023-03-12T14:43:25.795Z,96961.13
2023-03-12T14:45:57.437Z,96970.06
2023-03-12T14:48:28.285Z,96970.69
2023-03-12T14:50:57.087Z,96962.41
2023-03-12T14:53:26.912Z,96957.78
2023-03-12T14:56:02.782Z,96954.13
2023-03-12T14:58:30.975Z,96951.31
2023-03-12T15:01:01.984Z,96939.72
2023-03-12T15:03:30.224Z,96939.63
2023-03-12T15:05:58.377Z,96945.84
2023-03-12T15:08:26.572Z,96938.63
2023-03-12T15:10:56.160Z,96938.63
2023-03-12T15:13:24.675Z,96931.44
2023-03-12T15:15:53.918Z,96940.38
2023-03-12T15:18:25.728Z,96942.19
2023-03-12T15:20:54.605Z,96950.13
2023-03-12T15:23:23.158Z,96932.19
2023-03-12T15:26:12.784Z,96925.19
2023-03-12T15:28:41.005Z,96927.88
2023-03-12T15:31:12.650Z,96931.44
2023-03-12T15:33:42.478Z,96925.00
2023-03-12T15:36:24.640Z,96930.38
2023-03-12T15:38:54.974Z,96940.13
2023-03-12T15:41:24.025Z,96937.44
2023-03-12T15:43:53.807Z,96938.31
2023-03-12T15:46:21.959Z,96928.41
2023-03-12T15:48:51.988Z,96941.84
2023-03-12T15:51:31.656Z,96935.63
2023-03-12T15:54:04.144Z,96940.03
2023-03-12T15:56:35.756Z,96940.03
2023-03-12T15:59:06.243Z,96949.16
2023-03-12T16:01:45.720Z,96948.25
2023-03-12T16:04:15.530Z,96955.31
2023-03-12T16:06:44.313Z,96963.91
2023-03-12T16:09:13.445Z,96958.19
2023-03-12T16:11:43.194Z,96956.25
2023-03-12T16:14:17.446Z,96961.41
2023-03-12T16:16:45.756Z,96963.03
2023-03-12T16:19:15.602Z,96956.53
2023-03-12T16:21:43.989Z,96964.41
2023-03-12T16:24:12.122Z,96968.59
2023-03-12T16:26:43.719Z,96971.25
2023-03-12T16:29:12.610Z,96973.84
2023-03-12T16:31:40.743Z,96974.59
2023-03-12T16:34:10.915Z,96972.75
2023-03-12T16:36:40.404Z,96977.16
2023-03-12T16:39:08.519Z,96982.44
2023-03-12T16:41:36.665Z,96980.50
2023-03-12T16:44:04.810Z,96982.31
2023-03-12T16:46:33.153Z,96988.44
2023-03-12T16:49:01.782Z,96987.56
2023-03-12T16:51:29.856Z,96984.69
2023-03-12T16:54:09.779Z,96986.50
2023-03-12T16:56:39.736Z,96993.69
2023-03-12T16:59:09.262Z,97002.75
2023-03-12T17:01:37.508Z,96995.63
2023-03-12T17:04:06.082Z,96999.94
2023-03-12T17:06:34.611Z,97000.69
2023-03-12T17:09:04.262Z,97017.56
2023-03-12T17:11:32.917Z,97017.56
2023-03-12T17:14:02.047Z,97030.13
2023-03-12T17:16:30.297Z,97034.63
2023-03-12T17:18:58.443Z,97029.25
2023-03-12T17:21:26.593Z,97024.63
2023-03-12T17:23:55.134Z,97019.19
2023-03-12T17:26:24.812Z,97015.75
2023-03-12T17:28:52.941Z,97014.88
2023-03-12T17:31:22.031Z,97012.06
2023-03-12T17:33:54.792Z,97014.63
2023-03-12T17:36:22.993Z,97027.56
2023-03-12T17:38:51.181Z,97025.19
2023-03-12T17:41:26.571Z,97026.06
2023-03-12T17:44:01.787Z,97039.63
2023-03-12T17:46:30.031Z,97042.31
2023-03-12T17:48:58.178Z,97038.63
2023-03-12T17:51:26.326Z,97044.13
2023-03-12T17:53:54.492Z,97040.69
2023-03-12T17:56:22.651Z,97039.28
2023-03-12T17:58:50.787Z,97045.41
2023-03-12T18:01:20.276Z,97043.06
2023-03-12T18:03:50.107Z,97042.31
2023-03-12T18:06:19.864Z,97052.09
2023-03-12T18:08:48.124Z,97057.91
2023-03-12T18:11:16.246Z,97058.22
2023-03-12T18:13:44.302Z,97064.69
2023-03-12T18:16:12.581Z,97066.63
2023-03-12T18:18:42.088Z,97070.38
2023-03-12T18:21:10.176Z,97072.31
2023-03-12T18:23:38.293Z,97076.94
2023-03-12T18:26:06.764Z,97080.59
2023-03-12T18:28:34.881Z,97086.06
2023-03-12T18:31:03.899Z,97087.91
2023-03-12T18:33:32.047Z,97079.94
2023-03-12T18:36:01.535Z,97090.81
2023-03-12T18:38:29.761Z,97091.75
2023-03-12T18:41:04.633Z,97096.31
2023-03-12T18:43:33.104Z,97095.44
2023-03-12T18:46:01.223Z,97091.00
2023-03-12T18:48:29.301Z,97087.50
2023-03-12T18:50:57.491Z,97091.88
2023-03-12T18:53:26.991Z,97098.00
2023-03-12T18:55:55.374Z,97098.66
2023-03-12T18:58:23.781Z,97088.00
2023-03-12T19:00:52.538Z,97090.94
2023-03-12T19:03:20.911Z,97096.38
2023-03-12T19:05:49.045Z,97093.81
2023-03-12T19:08:17.257Z,97099.31
2023-03-12T19:10:46.734Z,97087.69
2023-03-12T19:13:15.535Z,97084.06
2023-03-12T19:15:45.291Z,97084.88
2023-03-12T19:18:13.380Z,97098.31
2023-03-12T19:20:41.436Z,97101.00
2023-03-12T19:23:09.488Z,97101.13
2023-03-12T19:25:37.596Z,97099.41
2023-03-12T19:28:07.427Z,97106.63
2023-03-12T19:30:35.548Z,97104.88
2023-03-12T19:33:03.723Z,97111.00
2023-03-12T19:35:31.988Z,97110.06
2023-03-12T19:38:02.003Z,97114.56
2023-03-12T19:40:30.135Z,97118.97
2023-03-12T19:42:58.219Z,97124.44
2023-03-12T19:45:27.840Z,97133.25
2023-03-12T19:47:55.963Z,97125.19
2023-03-12T19:50:24.207Z,97123.38
2023-03-12T19:52:52.350Z,97114.34
2023-03-12T19:55:20.476Z,97124.00
2023-03-12T19:57:48.640Z,97122.06
2023-03-12T20:00:17.273Z,97120.13
2023-03-12T20:02:47.019Z,97133.56
2023-03-12T20:05:15.233Z,97137.13
2023-03-12T20:07:44.375Z,97139.69
2023-03-12T20:10:12.923Z,97143.25
2023-03-12T20:12:41.064Z,97156.91
2023-03-12T20:15:09.779Z,97167.66
2023-03-12T20:17:37.962Z,97157.88
2023-03-12T20:20:09.363Z,97164.13
2023-03-12T20:22:37.503Z,97157.00
2023-03-12T20:25:06.353Z,97163.25
2023-03-12T20:27:35.266Z,97155.19
2023-03-12T20:30:03.812Z,97157.00
2023-03-12T20:32:31.959Z,97154.31
2023-03-12T20:35:00.270Z,97147.25
2023-03-12T20:37:29.754Z,97134.56
2023-03-12T20:39:57.848Z,97125.75
2023-03-12T20:42:25.971Z,97128.44
2023-03-12T20:44:54.072Z,97138.31
2023-03-12T20:47:22.184Z,97130.25
2023-03-12T20:49:50.224Z,97131.00
2023-03-12T20:52:18.459Z,97127.44
2023-03-12T20:54:47.884Z,97136.50
2023-03-12T20:57:15.993Z,97129.38
2023-03-12T20:59:44.074Z,97143.56
2023-03-12T21:02:14.750Z,97144.56
2023-03-12T21:04:42.956Z,97140.13
2023-03-12T21:07:11.016Z,97149.06
2023-03-12T21:09:39.128Z,97147.25
2023-03-12T21:12:08.672Z,97147.25
2023-03-12T21:14:36.766Z,97154.44
2023-03-12T21:17:04.915Z,97155.41
2023-03-12T21:19:33.100Z,97143.69
2023-03-12T21:22:01.195Z,97148.19
2023-03-12T21:24:29.520Z,97143.78
2023-03-12T21:26:57.739Z,97134.75
2023-03-12T21:29:27.184Z,97150.03
2023-03-12T21:31:55.297Z,97142.81
2023-03-12T21:34:23.574Z,97142.81
2023-03-12T21:36:51.731Z,97148.19
2023-03-12T21:39:19.797Z,97150.03
2023-03-12T21:41:47.925Z,97159.91
2023-03-12T21:44:16.671Z,97147.34
2023-03-12T21:46:46.329Z,97154.53
2023-03-12T21:49:17.952Z,97159.91
2023-03-12T21:51:46.230Z,97153.56
2023-03-12T21:54:14.307Z,97174.31
2023-03-12T21:56:42.449Z,97162.59
2023-03-12T21:59:11.334Z,97169.69
2023-03-12T22:01:39.581Z,97162.59
2023-03-12T22:04:09.120Z,97159.06
2023-03-12T22:06:37.269Z,97171.63
2023-03-12T22:09:05.352Z,97175.16
2023-03-12T22:11:33.457Z,97180.53
2023-03-12T22:14:01.584Z,97177.84
2023-03-12T22:16:29.787Z,97185.03
2023-03-12T22:18:57.884Z,97186.91
2023-03-12T22:21:27.435Z,97186.03
2023-03-12T22:23:57.311Z,97184.28
2023-03-12T22:26:26.149Z,97194.19
2023-03-12T22:28:55.005Z,97195.16
2023-03-12T22:31:24.053Z,97206.00
2023-03-12T22:33:52.165Z,97212.34
2023-03-12T22:36:20.558Z,97215.13
2023-03-12T22:38:50.220Z,97205.38
2023-03-12T22:41:19.195Z,97206.19
2023-03-12T22:43:47.721Z,97214.38
2023-03-12T22:46:16.529Z,97203.63
2023-03-12T22:48:44.935Z,97205.44
2023-03-12T22:51:13.331Z,97196.63
2023-03-12T22:53:41.466Z,97206.53
2023-03-12T22:56:11.688Z,97213.84
2023-03-12T22:58:39.809Z,97209.41
2023-03-12T23:01:09.189Z,97209.41
2023-03-12T23:03:37.724Z,97198.78
2023-03-12T23:06:09.619Z,97197.00
2023-03-12T23:08:37.752Z,97203.28
2023-03-12T23:11:06.289Z,97190.88
2023-03-12T23:13:36.762Z,97194.44
2023-03-12T23:16:05.169Z,97188.19
2023-03-12T23:18:33.882Z,97200.88
2023-03-12T23:21:02.150Z,97196.38
2023-03-12T23:23:30.482Z,97204.44
2023-03-12T23:25:59.564Z,97194.66
2023-03-12T23:28:27.675Z,97192.06
2023-03-12T23:30:58.021Z,97197.53
2023-03-12T23:33:26.385Z,97192.16
2023-03-12T23:35:55.984Z,97190.47
2023-03-12T23:38:24.431Z,97187.03
2023-03-12T23:40:52.478Z,97188.84
2023-03-12T23:43:20.751Z,97185.16
2023-03-12T23:45:48.814Z,97186.03
2023-03-12T23:48:18.340Z,97179.91
2023-03-12T23:50:46.389Z,97180.88
2023-03-12T23:53:14.515Z,97177.34
2023-03-12T23:55:42.609Z,97180.13
2023-03-12T23:58:10.698Z,97177.53
